Ferndale, California
Current Conditions -  °F | °C
As of 11:55 AM on Sunday 25 Jan 2015 (Local Time) from KFOT Reporting Station
Clear Clear  
Wind Chill: 64°   Ceiling: Unl
Heat Index: 64°   Visibility: 10mi
Dew Point: 52°   Wind: 7mph
Humidity: 64%   Direction: 290°WNW
Pressure: 30.07"   Gusts: NA
Location:  40.58°N, 124.26°W
Report Text: KFOT 251955Z AUTO 29006KT 10SM CLR 18/11 A3007 RMK AO1
Loading
Personal Weather Stations






























Interactive Weather Map New forecast layout! Learn more

10-Day Weather Forecast

Advertisements
Track Severe Weather on mobile